AAR713 RKSI-RCTP
Flight info
| Callsign | AAR713 |
|---|---|
| Flight time | 2h 5m |
| Altitude | 36000 |
| Route | BOPTA3C BOPTA Z51 BEDES Y711 MUGUS Y742 SALMI B576 BAKER BAKER1A |
| Aircraft | A321/M-SDE3FGHIRWY/LB1 |
Departure
| Time | 2026-05-06 13:52 |
|---|---|
| Airport | Incheon International Airport (RKSI) |
Arrival
| Time | 2026-05-06 15:57 |
|---|---|
| Airport | Taiwan Taoyuan International Airport (RCTP) |
| Time | Latitude | Longitude | Altitude | Speed | Heading |
|---|---|---|---|---|---|
| 2026-05-06 13:13 | 37.46806 | 126.44052 | 33 ft | 0 kts | 219° |
| 2026-05-06 13:36 | 37.46814 | 126.44060 | 31 ft | 4 kts | 219° |
| 2026-05-06 13:37 | 37.46835 | 126.44082 | 33 ft | 4 kts | 219° |
| 2026-05-06 13:37 | 37.46856 | 126.44103 | 32 ft | 4 kts | 219° |
| 2026-05-06 13:37 | 37.46874 | 126.44122 | 33 ft | 4 kts | 205° |
| 2026-05-06 13:37 | 37.46897 | 126.44124 | 32 ft | 4 kts | 153° |
| 2026-05-06 13:38 | 37.46913 | 126.44109 | 33 ft | 1 kts | 134° |
| 2026-05-06 13:38 | 37.46916 | 126.44106 | 31 ft | 0 kts | 134° |
| 2026-05-06 13:40 | 37.46915 | 126.44108 | 33 ft | 1 kts | 134° |
| 2026-05-06 13:40 | 37.46904 | 126.44121 | 32 ft | 4 kts | 134° |
| 2026-05-06 13:41 | 37.46866 | 126.44172 | 33 ft | 11 kts | 133° |
| 2026-05-06 13:41 | 37.46809 | 126.44244 | 33 ft | 12 kts | 138° |
| 2026-05-06 13:41 | 37.46737 | 126.44313 | 33 ft | 14 kts | 143° |
| 2026-05-06 13:41 | 37.46656 | 126.44384 | 32 ft | 15 kts | 149° |
| 2026-05-06 13:42 | 37.46569 | 126.44344 | 32 ft | 15 kts | 235° |
| 2026-05-06 13:42 | 37.46505 | 126.44230 | 33 ft | 16 kts | 234° |
| 2026-05-06 13:42 | 37.46437 | 126.44111 | 33 ft | 18 kts | 235° |
| 2026-05-06 13:42 | 37.46365 | 126.43981 | 33 ft | 19 kts | 234° |
| 2026-05-06 13:43 | 37.46293 | 126.43855 | 33 ft | 15 kts | 234° |
| 2026-05-06 13:43 | 37.46230 | 126.43743 | 30 ft | 16 kts | 234° |
| 2026-05-06 13:43 | 37.46162 | 126.43623 | 33 ft | 17 kts | 234° |
| 2026-05-06 13:43 | 37.46091 | 126.43495 | 33 ft | 18 kts | 234° |
| 2026-05-06 13:44 | 37.46032 | 126.43391 | 33 ft | 9 kts | 234° |
| 2026-05-06 13:44 | 37.46021 | 126.43372 | 31 ft | 0 kts | 234° |
| 2026-05-06 13:44 | 37.46015 | 126.43362 | 30 ft | 4 kts | 234° |
| 2026-05-06 13:45 | 37.45985 | 126.43309 | 33 ft | 11 kts | 234° |
| 2026-05-06 13:45 | 37.45982 | 126.43132 | 32 ft | 10 kts | 324° |
| 2026-05-06 13:45 | 37.46019 | 126.43100 | 33 ft | 0 kts | 325° |
| 2026-05-06 13:46 | 37.46022 | 126.43098 | 31 ft | 2 kts | 325° |
| 2026-05-06 13:46 | 37.46050 | 126.43073 | 31 ft | 8 kts | 325° |
| 2026-05-06 13:46 | 37.46109 | 126.43020 | 33 ft | 13 kts | 324° |
| 2026-05-06 13:46 | 37.46193 | 126.42945 | 33 ft | 16 kts | 324° |
| 2026-05-06 13:47 | 37.46285 | 126.42863 | 33 ft | 17 kts | 324° |
| 2026-05-06 13:47 | 37.46372 | 126.42786 | 33 ft | 16 kts | 324° |
| 2026-05-06 13:47 | 37.46464 | 126.42704 | 31 ft | 17 kts | 324° |
| 2026-05-06 13:47 | 37.46564 | 126.42616 | 33 ft | 18 kts | 325° |
| 2026-05-06 13:48 | 37.46669 | 126.42522 | 33 ft | 18 kts | 324° |
| 2026-05-06 13:48 | 37.46759 | 126.42441 | 32 ft | 16 kts | 324° |
| 2026-05-06 13:48 | 37.46855 | 126.42355 | 33 ft | 17 kts | 325° |
| 2026-05-06 13:48 | 37.46956 | 126.42266 | 33 ft | 19 kts | 324° |
| 2026-05-06 13:49 | 37.47049 | 126.42183 | 32 ft | 16 kts | 324° |
| 2026-05-06 13:49 | 37.47140 | 126.42102 | 33 ft | 17 kts | 324° |
| 2026-05-06 13:49 | 37.47240 | 126.42013 | 33 ft | 18 kts | 325° |
| 2026-05-06 13:49 | 37.47343 | 126.41922 | 33 ft | 17 kts | 325° |
| 2026-05-06 13:50 | 37.47404 | 126.41842 | 33 ft | 12 kts | 281° |
| 2026-05-06 13:50 | 37.47369 | 126.41748 | 33 ft | 13 kts | 235° |
| 2026-05-06 13:50 | 37.47315 | 126.41652 | 33 ft | 14 kts | 234° |
| 2026-05-06 13:50 | 37.47273 | 126.41603 | 33 ft | 10 kts | 198° |
| 2026-05-06 13:51 | 37.47206 | 126.41624 | 33 ft | 11 kts | 145° |
| 2026-05-06 13:51 | 37.46985 | 126.41821 | 32 ft | 71 kts | 144° |
| 2026-05-06 13:51 | 37.46631 | 126.42136 | 33 ft | 116 kts | 144° |
| 2026-05-06 13:51 | 37.45799 | 126.42876 | 48 ft | 169 kts | 145° |
| 2026-05-06 13:52 | 37.44820 | 126.43706 | 686 ft | 168 kts | 148° |
| 2026-05-06 13:52 | 37.43833 | 126.44462 | 1376 ft | 171 kts | 155° |
| 2026-05-06 13:52 | 37.42753 | 126.45262 | 1647 ft | 190 kts | 156° |
| 2026-05-06 13:52 | 37.41540 | 126.46163 | 1830 ft | 215 kts | 155° |
| 2026-05-06 13:53 | 37.40178 | 126.47188 | 2116 ft | 241 kts | 154° |
| 2026-05-06 13:53 | 37.38689 | 126.48290 | 2662 ft | 252 kts | 160° |
| 2026-05-06 13:53 | 37.37030 | 126.48957 | 3444 ft | 251 kts | 169° |
| 2026-05-06 13:53 | 37.35331 | 126.49529 | 4275 ft | 254 kts | 169° |
| 2026-05-06 13:54 | 37.33610 | 126.50110 | 5061 ft | 258 kts | 168° |
| 2026-05-06 13:54 | 37.31860 | 126.50703 | 5812 ft | 263 kts | 168° |
| 2026-05-06 13:54 | 37.30075 | 126.51308 | 6547 ft | 268 kts | 167° |
| 2026-05-06 13:54 | 37.28263 | 126.51948 | 7237 ft | 274 kts | 163° |
| 2026-05-06 13:55 | 37.26517 | 126.52992 | 7909 ft | 282 kts | 154° |
| 2026-05-06 13:55 | 37.24779 | 126.54177 | 8585 ft | 287 kts | 154° |
| 2026-05-06 13:55 | 37.23004 | 126.55383 | 9275 ft | 293 kts | 154° |
| 2026-05-06 13:55 | 37.21196 | 126.56606 | 9959 ft | 298 kts | 155° |
| 2026-05-06 13:56 | 37.19322 | 126.57869 | 10306 ft | 316 kts | 155° |
| 2026-05-06 13:56 | 37.17314 | 126.59217 | 10467 ft | 339 kts | 155° |
| 2026-05-06 13:56 | 37.15187 | 126.60648 | 10843 ft | 351 kts | 155° |
| 2026-05-06 13:56 | 37.12927 | 126.61835 | 11440 ft | 353 kts | 167° |
| 2026-05-06 13:57 | 37.10523 | 126.62435 | 12067 ft | 353 kts | 179° |
| 2026-05-06 13:57 | 37.08072 | 126.62485 | 12690 ft | 354 kts | 185° |
| 2026-05-06 13:57 | 37.05632 | 126.62447 | 12931 ft | 356 kts | 185° |
| 2026-05-06 13:57 | 37.03121 | 126.62410 | 12981 ft | 356 kts | 185° |
| 2026-05-06 13:58 | 37.00645 | 126.62377 | 12981 ft | 356 kts | 185° |
| 2026-05-06 13:58 | 36.98168 | 126.62348 | 12983 ft | 356 kts | 185° |
| 2026-05-06 13:58 | 36.95705 | 126.62346 | 13457 ft | 360 kts | 184° |
| 2026-05-06 13:58 | 36.93189 | 126.62374 | 14126 ft | 363 kts | 184° |
| 2026-05-06 13:59 | 36.90656 | 126.62414 | 14724 ft | 366 kts | 184° |
| 2026-05-06 13:59 | 36.88101 | 126.62449 | 15326 ft | 368 kts | 185° |
| 2026-05-06 13:59 | 36.85533 | 126.62397 | 15931 ft | 370 kts | 186° |
| 2026-05-06 13:59 | 36.82949 | 126.62263 | 16535 ft | 372 kts | 187° |
| 2026-05-06 14:00 | 36.80356 | 126.62087 | 17148 ft | 375 kts | 188° |
| 2026-05-06 14:00 | 36.77742 | 126.61902 | 17743 ft | 378 kts | 188° |
| 2026-05-06 14:00 | 36.75104 | 126.61740 | 18316 ft | 382 kts | 185° |
| 2026-05-06 14:00 | 36.72429 | 126.62017 | 18788 ft | 391 kts | 174° |
| 2026-05-06 14:01 | 36.69770 | 126.62850 | 19292 ft | 396 kts | 169° |
| 2026-05-06 14:01 | 36.67106 | 126.63761 | 19801 ft | 398 kts | 169° |
| 2026-05-06 14:01 | 36.64425 | 126.64676 | 20328 ft | 401 kts | 170° |
| 2026-05-06 14:01 | 36.61723 | 126.65590 | 20826 ft | 403 kts | 170° |
| 2026-05-06 14:02 | 36.59004 | 126.66503 | 21337 ft | 406 kts | 170° |
| 2026-05-06 14:02 | 36.56265 | 126.67417 | 21837 ft | 409 kts | 171° |
| 2026-05-06 14:02 | 36.53504 | 126.68335 | 22336 ft | 412 kts | 171° |
| 2026-05-06 14:02 | 36.50726 | 126.69259 | 22824 ft | 415 kts | 171° |
| 2026-05-06 14:03 | 36.47929 | 126.70192 | 23291 ft | 418 kts | 171° |
| 2026-05-06 14:03 | 36.45113 | 126.71132 | 23716 ft | 421 kts | 171° |
| 2026-05-06 14:03 | 36.42278 | 126.72078 | 24089 ft | 423 kts | 171° |
| 2026-05-06 14:03 | 36.39425 | 126.73028 | 24462 ft | 426 kts | 171° |
| 2026-05-06 14:04 | 36.36551 | 126.73987 | 24805 ft | 429 kts | 171° |
| 2026-05-06 14:04 | 36.33666 | 126.74961 | 25163 ft | 431 kts | 171° |
| 2026-05-06 14:04 | 36.30763 | 126.75945 | 25499 ft | 434 kts | 171° |
| 2026-05-06 14:04 | 36.27840 | 126.76938 | 25845 ft | 437 kts | 171° |
| 2026-05-06 14:05 | 36.24898 | 126.77932 | 26202 ft | 439 kts | 171° |
| 2026-05-06 14:05 | 36.21940 | 126.78925 | 26562 ft | 442 kts | 171° |
| 2026-05-06 14:05 | 36.18968 | 126.79920 | 26913 ft | 444 kts | 171° |
| 2026-05-06 14:05 | 36.15957 | 126.80710 | 27226 ft | 440 kts | 178° |
| 2026-05-06 14:06 | 36.12918 | 126.80930 | 27561 ft | 436 kts | 187° |
| 2026-05-06 14:06 | 36.09904 | 126.80660 | 27893 ft | 435 kts | 191° |
| 2026-05-06 14:06 | 36.06884 | 126.80327 | 28244 ft | 437 kts | 191° |
| 2026-05-06 14:06 | 36.03850 | 126.79994 | 28585 ft | 439 kts | 191° |
| 2026-05-06 14:07 | 36.00802 | 126.79661 | 28914 ft | 441 kts | 191° |
| 2026-05-06 14:07 | 35.97739 | 126.79328 | 29208 ft | 443 kts | 191° |
| 2026-05-06 14:07 | 35.94661 | 126.78995 | 29498 ft | 446 kts | 191° |
| 2026-05-06 14:07 | 35.91606 | 126.78668 | 29788 ft | 448 kts | 191° |
| 2026-05-06 14:08 | 35.88493 | 126.78333 | 30090 ft | 450 kts | 191° |
| 2026-05-06 14:08 | 35.85362 | 126.77994 | 30360 ft | 452 kts | 191° |
| 2026-05-06 14:08 | 35.82224 | 126.77653 | 30634 ft | 454 kts | 191° |
| 2026-05-06 14:08 | 35.79072 | 126.77314 | 30895 ft | 456 kts | 191° |
| 2026-05-06 14:09 | 35.75905 | 126.76974 | 31141 ft | 458 kts | 191° |
| 2026-05-06 14:09 | 35.72731 | 126.76631 | 31498 ft | 457 kts | 191° |
| 2026-05-06 14:09 | 35.69567 | 126.76290 | 31865 ft | 456 kts | 191° |
| 2026-05-06 14:09 | 35.66410 | 126.75951 | 32228 ft | 455 kts | 191° |
| 2026-05-06 14:10 | 35.63255 | 126.75612 | 32588 ft | 454 kts | 191° |
| 2026-05-06 14:10 | 35.60111 | 126.75272 | 32948 ft | 453 kts | 191° |
| 2026-05-06 14:10 | 35.56968 | 126.74933 | 33279 ft | 453 kts | 191° |
| 2026-05-06 14:10 | 35.53836 | 126.74594 | 33641 ft | 452 kts | 191° |
| 2026-05-06 14:11 | 35.50709 | 126.74256 | 34009 ft | 450 kts | 191° |
| 2026-05-06 14:11 | 35.47593 | 126.73919 | 34333 ft | 449 kts | 191° |
| 2026-05-06 14:11 | 35.44478 | 126.73584 | 34639 ft | 449 kts | 191° |
| 2026-05-06 14:11 | 35.41365 | 126.73251 | 34936 ft | 449 kts | 191° |
| 2026-05-06 14:12 | 35.38259 | 126.72917 | 35195 ft | 448 kts | 191° |
| 2026-05-06 14:12 | 35.35154 | 126.72585 | 35473 ft | 448 kts | 191° |
| 2026-05-06 14:12 | 35.32050 | 126.72253 | 35742 ft | 448 kts | 191° |
| 2026-05-06 14:12 | 35.28943 | 126.71921 | 35978 ft | 449 kts | 191° |
| 2026-05-06 14:13 | 35.22738 | 126.71271 | 36058 ft | 446 kts | 191° |
| 2026-05-06 14:13 | 35.16560 | 126.70616 | 36059 ft | 446 kts | 191° |
| 2026-05-06 14:14 | 35.10364 | 126.69955 | 36062 ft | 447 kts | 191° |
| 2026-05-06 14:14 | 35.04168 | 126.69294 | 36063 ft | 447 kts | 191° |
| 2026-05-06 14:15 | 34.97973 | 126.68636 | 36065 ft | 447 kts | 191° |
| 2026-05-06 14:15 | 34.91814 | 126.67984 | 36071 ft | 448 kts | 191° |
| 2026-05-06 14:16 | 34.85606 | 126.67328 | 36072 ft | 448 kts | 191° |
| 2026-05-06 14:16 | 34.79395 | 126.66672 | 36065 ft | 448 kts | 191° |
| 2026-05-06 14:17 | 34.73175 | 126.66015 | 36071 ft | 449 kts | 191° |
| 2026-05-06 14:17 | 34.66953 | 126.65358 | 36079 ft | 449 kts | 191° |
| 2026-05-06 14:18 | 34.60728 | 126.64705 | 36082 ft | 449 kts | 191° |
| 2026-05-06 14:18 | 34.54492 | 126.64049 | 36059 ft | 450 kts | 191° |
| 2026-05-06 14:19 | 34.48240 | 126.63400 | 36071 ft | 451 kts | 191° |
| 2026-05-06 14:19 | 34.41980 | 126.62756 | 36075 ft | 452 kts | 191° |
| 2026-05-06 14:20 | 34.35713 | 126.62094 | 36076 ft | 453 kts | 190° |
| 2026-05-06 14:20 | 34.29426 | 126.61431 | 36083 ft | 454 kts | 190° |
| 2026-05-06 14:21 | 34.23133 | 126.60771 | 36093 ft | 454 kts | 190° |
| 2026-05-06 14:21 | 34.16831 | 126.60114 | 36070 ft | 455 kts | 190° |
| 2026-05-06 14:22 | 34.10517 | 126.59458 | 36076 ft | 456 kts | 190° |
| 2026-05-06 14:22 | 34.04233 | 126.58810 | 36089 ft | 457 kts | 190° |
| 2026-05-06 14:23 | 33.97899 | 126.58147 | 36078 ft | 457 kts | 190° |
| 2026-05-06 14:23 | 33.91552 | 126.57489 | 36078 ft | 458 kts | 189° |
| 2026-05-06 14:24 | 33.85212 | 126.56760 | 36081 ft | 455 kts | 195° |
| 2026-05-06 14:24 | 33.79223 | 126.54605 | 36068 ft | 448 kts | 205° |
| 2026-05-06 14:25 | 33.73358 | 126.52042 | 36070 ft | 449 kts | 205° |
| 2026-05-06 14:25 | 33.67480 | 126.49495 | 36091 ft | 450 kts | 205° |
| 2026-05-06 14:26 | 33.61589 | 126.46948 | 36094 ft | 450 kts | 205° |
| 2026-05-06 14:26 | 33.55705 | 126.44411 | 36087 ft | 450 kts | 204° |
| 2026-05-06 14:27 | 33.49809 | 126.41874 | 36096 ft | 450 kts | 204° |
| 2026-05-06 14:27 | 33.43913 | 126.39340 | 36097 ft | 450 kts | 204° |
| 2026-05-06 14:28 | 33.38012 | 126.36798 | 36075 ft | 451 kts | 204° |
| 2026-05-06 14:28 | 33.32146 | 126.34270 | 36065 ft | 451 kts | 204° |
| 2026-05-06 14:29 | 33.26234 | 126.31735 | 36075 ft | 452 kts | 204° |
| 2026-05-06 14:29 | 33.20312 | 126.29202 | 36073 ft | 452 kts | 204° |
| 2026-05-06 14:30 | 33.14387 | 126.26671 | 36082 ft | 453 kts | 204° |
| 2026-05-06 14:30 | 33.08452 | 126.24135 | 36095 ft | 453 kts | 204° |
| 2026-05-06 14:31 | 33.02519 | 126.21603 | 36103 ft | 453 kts | 204° |
| 2026-05-06 14:31 | 32.96593 | 126.19075 | 36108 ft | 452 kts | 204° |
| 2026-05-06 14:32 | 32.90681 | 126.16528 | 36104 ft | 452 kts | 204° |
| 2026-05-06 14:32 | 32.84772 | 126.13990 | 36085 ft | 452 kts | 204° |
| 2026-05-06 14:33 | 32.78857 | 126.11461 | 36087 ft | 452 kts | 204° |
| 2026-05-06 14:33 | 32.72936 | 126.08925 | 36092 ft | 453 kts | 204° |
| 2026-05-06 14:34 | 32.67011 | 126.06393 | 36081 ft | 453 kts | 204° |
| 2026-05-06 14:34 | 32.61075 | 126.03867 | 36086 ft | 453 kts | 204° |
| 2026-05-06 14:35 | 32.55129 | 126.01336 | 36094 ft | 454 kts | 204° |
| 2026-05-06 14:35 | 32.49188 | 125.98815 | 36096 ft | 454 kts | 204° |
| 2026-05-06 14:36 | 32.43243 | 125.96288 | 36080 ft | 454 kts | 203° |
| 2026-05-06 14:36 | 32.37337 | 125.93780 | 36088 ft | 454 kts | 203° |
| 2026-05-06 14:37 | 32.31380 | 125.91267 | 36091 ft | 454 kts | 203° |
| 2026-05-06 14:37 | 32.25421 | 125.88756 | 36084 ft | 455 kts | 203° |
| 2026-05-06 14:38 | 32.19460 | 125.86240 | 36085 ft | 455 kts | 203° |
| 2026-05-06 14:38 | 32.13494 | 125.83727 | 36090 ft | 456 kts | 203° |
| 2026-05-06 14:39 | 32.07513 | 125.81225 | 36084 ft | 456 kts | 203° |
| 2026-05-06 14:39 | 32.01539 | 125.78721 | 36090 ft | 456 kts | 203° |
| 2026-05-06 14:40 | 31.96574 | 125.76628 | 36093 ft | 456 kts | 203° |
| 2026-05-06 14:40 | 31.89595 | 125.73690 | 36096 ft | 455 kts | 203° |
| 2026-05-06 14:41 | 31.84638 | 125.71608 | 36088 ft | 455 kts | 203° |
| 2026-05-06 14:41 | 31.78671 | 125.69112 | 36090 ft | 455 kts | 203° |
| 2026-05-06 14:42 | 31.72707 | 125.66612 | 36094 ft | 455 kts | 203° |
| 2026-05-06 14:42 | 31.66740 | 125.64116 | 36086 ft | 455 kts | 203° |
| 2026-05-06 14:43 | 31.60775 | 125.61617 | 36089 ft | 455 kts | 203° |
| 2026-05-06 14:43 | 31.54809 | 125.59114 | 36091 ft | 455 kts | 203° |
| 2026-05-06 14:44 | 31.48846 | 125.56624 | 36082 ft | 455 kts | 203° |
| 2026-05-06 14:45 | 31.39907 | 125.52884 | 36086 ft | 454 kts | 203° |
| 2026-05-06 14:45 | 31.33955 | 125.50394 | 36083 ft | 454 kts | 203° |
| 2026-05-06 14:46 | 31.28006 | 125.47919 | 36079 ft | 454 kts | 203° |
| 2026-05-06 14:46 | 31.22063 | 125.45436 | 36082 ft | 453 kts | 203° |
| 2026-05-06 14:47 | 31.16121 | 125.42965 | 36082 ft | 453 kts | 203° |
| 2026-05-06 14:47 | 31.10173 | 125.40500 | 36083 ft | 454 kts | 203° |
| 2026-05-06 14:48 | 31.04229 | 125.38029 | 36082 ft | 453 kts | 203° |
| 2026-05-06 14:48 | 30.98291 | 125.35562 | 36088 ft | 453 kts | 203° |
| 2026-05-06 14:49 | 30.92348 | 125.33102 | 36084 ft | 453 kts | 203° |
| 2026-05-06 14:49 | 30.86405 | 125.30648 | 36072 ft | 453 kts | 203° |
| 2026-05-06 14:50 | 30.80464 | 125.28192 | 36077 ft | 453 kts | 203° |
| 2026-05-06 14:50 | 30.74560 | 125.25754 | 36081 ft | 453 kts | 203° |
| 2026-05-06 14:51 | 30.68618 | 125.23307 | 36073 ft | 453 kts | 203° |
| 2026-05-06 14:51 | 30.62676 | 125.20864 | 36078 ft | 453 kts | 203° |
| 2026-05-06 14:52 | 30.56738 | 125.18428 | 36080 ft | 453 kts | 203° |
| 2026-05-06 14:52 | 30.50799 | 125.15992 | 36080 ft | 452 kts | 203° |
| 2026-05-06 14:53 | 30.44865 | 125.13560 | 36074 ft | 452 kts | 203° |
| 2026-05-06 14:53 | 30.38924 | 125.11133 | 36076 ft | 453 kts | 203° |
| 2026-05-06 14:54 | 30.32980 | 125.08701 | 36077 ft | 453 kts | 203° |
| 2026-05-06 14:54 | 30.27036 | 125.06275 | 36063 ft | 453 kts | 203° |
| 2026-05-06 14:55 | 30.21085 | 125.03852 | 36068 ft | 454 kts | 203° |
| 2026-05-06 14:55 | 30.15132 | 125.01421 | 36073 ft | 454 kts | 203° |
| 2026-05-06 14:56 | 30.09171 | 124.98992 | 36078 ft | 454 kts | 203° |
| 2026-05-06 14:56 | 30.03203 | 124.96572 | 36079 ft | 454 kts | 203° |
| 2026-05-06 14:57 | 29.97252 | 124.94138 | 36080 ft | 454 kts | 204° |
| 2026-05-06 14:57 | 29.91336 | 124.91619 | 36077 ft | 453 kts | 204° |
| 2026-05-06 14:58 | 29.85437 | 124.89063 | 36060 ft | 453 kts | 204° |
| 2026-05-06 14:58 | 29.79532 | 124.86527 | 36059 ft | 453 kts | 204° |
| 2026-05-06 14:59 | 29.73614 | 124.84004 | 36071 ft | 454 kts | 204° |
| 2026-05-06 14:59 | 29.67685 | 124.81490 | 36067 ft | 454 kts | 204° |
| 2026-05-06 15:00 | 29.61792 | 124.78990 | 36058 ft | 454 kts | 204° |
| 2026-05-06 15:00 | 29.55817 | 124.76460 | 36063 ft | 455 kts | 204° |
| 2026-05-06 15:01 | 29.49914 | 124.73966 | 36072 ft | 455 kts | 204° |
| 2026-05-06 15:01 | 29.43973 | 124.71451 | 36061 ft | 455 kts | 204° |
| 2026-05-06 15:02 | 29.38039 | 124.68941 | 36069 ft | 455 kts | 204° |
| 2026-05-06 15:02 | 29.32106 | 124.66432 | 36074 ft | 455 kts | 204° |
| 2026-05-06 15:03 | 29.26169 | 124.63931 | 36077 ft | 455 kts | 204° |
| 2026-05-06 15:03 | 29.20232 | 124.61431 | 36067 ft | 455 kts | 204° |
| 2026-05-06 15:04 | 29.14291 | 124.58935 | 36071 ft | 455 kts | 204° |
| 2026-05-06 15:04 | 29.08348 | 124.56435 | 36072 ft | 455 kts | 204° |
| 2026-05-06 15:05 | 29.02402 | 124.53950 | 36071 ft | 455 kts | 204° |
| 2026-05-06 15:05 | 28.96475 | 124.51411 | 36074 ft | 453 kts | 209° |
| 2026-05-06 15:06 | 28.91189 | 124.47667 | 36073 ft | 445 kts | 220° |
| 2026-05-06 15:06 | 28.86162 | 124.43620 | 36076 ft | 445 kts | 219° |
| 2026-05-06 15:07 | 28.81090 | 124.39563 | 36073 ft | 445 kts | 219° |
| 2026-05-06 15:07 | 28.76027 | 124.35509 | 36074 ft | 445 kts | 219° |
| 2026-05-06 15:08 | 28.70961 | 124.31452 | 36074 ft | 445 kts | 219° |
| 2026-05-06 15:08 | 28.65897 | 124.27402 | 36076 ft | 445 kts | 219° |
| 2026-05-06 15:09 | 28.60829 | 124.23361 | 36066 ft | 445 kts | 219° |
| 2026-05-06 15:09 | 28.55769 | 124.19318 | 36069 ft | 444 kts | 220° |
| 2026-05-06 15:10 | 28.50711 | 124.15278 | 36071 ft | 444 kts | 219° |
| 2026-05-06 15:10 | 28.45655 | 124.11256 | 36074 ft | 443 kts | 219° |
| 2026-05-06 15:11 | 28.40602 | 124.07241 | 36068 ft | 443 kts | 219° |
| 2026-05-06 15:11 | 28.35554 | 124.03227 | 36072 ft | 443 kts | 219° |
| 2026-05-06 15:12 | 28.30511 | 123.99219 | 36071 ft | 442 kts | 220° |
| 2026-05-06 15:12 | 28.25507 | 123.95162 | 36066 ft | 442 kts | 220° |
| 2026-05-06 15:13 | 28.20558 | 123.91111 | 36062 ft | 442 kts | 220° |
| 2026-05-06 15:13 | 28.15569 | 123.87041 | 36072 ft | 441 kts | 220° |
| 2026-05-06 15:14 | 28.10581 | 123.82982 | 36080 ft | 441 kts | 220° |
| 2026-05-06 15:14 | 28.05593 | 123.78941 | 36077 ft | 441 kts | 220° |
| 2026-05-06 15:15 | 28.00600 | 123.74906 | 36065 ft | 441 kts | 220° |
| 2026-05-06 15:15 | 27.95613 | 123.70874 | 36068 ft | 440 kts | 220° |
| 2026-05-06 15:16 | 27.90641 | 123.66837 | 36068 ft | 440 kts | 220° |
| 2026-05-06 15:16 | 27.85679 | 123.62784 | 36070 ft | 440 kts | 220° |
| 2026-05-06 15:17 | 27.80710 | 123.58734 | 36058 ft | 440 kts | 220° |
| 2026-05-06 15:17 | 27.75733 | 123.54700 | 36064 ft | 441 kts | 220° |
| 2026-05-06 15:18 | 27.70751 | 123.50662 | 36068 ft | 441 kts | 220° |
| 2026-05-06 15:18 | 27.65771 | 123.46625 | 36070 ft | 441 kts | 220° |
| 2026-05-06 15:19 | 27.60790 | 123.42592 | 36053 ft | 441 kts | 220° |
| 2026-05-06 15:19 | 27.55802 | 123.38566 | 36061 ft | 441 kts | 220° |
| 2026-05-06 15:20 | 27.50810 | 123.34543 | 36068 ft | 441 kts | 220° |
| 2026-05-06 15:20 | 27.45857 | 123.30548 | 36072 ft | 441 kts | 220° |
| 2026-05-06 15:21 | 27.40865 | 123.26525 | 36070 ft | 441 kts | 220° |
| 2026-05-06 15:21 | 27.35873 | 123.22511 | 36068 ft | 441 kts | 220° |
| 2026-05-06 15:22 | 27.30880 | 123.18496 | 36068 ft | 441 kts | 220° |
| 2026-05-06 15:22 | 27.25892 | 123.14489 | 36060 ft | 441 kts | 220° |
| 2026-05-06 15:23 | 27.20895 | 123.10479 | 36062 ft | 441 kts | 220° |
| 2026-05-06 15:23 | 27.15900 | 123.06471 | 36051 ft | 441 kts | 220° |
| 2026-05-06 15:24 | 27.10899 | 123.02470 | 36058 ft | 441 kts | 220° |
| 2026-05-06 15:24 | 27.05895 | 122.98474 | 36059 ft | 442 kts | 220° |
| 2026-05-06 15:25 | 27.00882 | 122.94488 | 36059 ft | 442 kts | 220° |
| 2026-05-06 15:25 | 26.95870 | 122.90503 | 36060 ft | 441 kts | 220° |
| 2026-05-06 15:26 | 26.90858 | 122.86527 | 36055 ft | 441 kts | 220° |
| 2026-05-06 15:26 | 26.85846 | 122.82550 | 36052 ft | 441 kts | 220° |
| 2026-05-06 15:27 | 26.80832 | 122.78578 | 36053 ft | 442 kts | 220° |
| 2026-05-06 15:27 | 26.75851 | 122.74629 | 36048 ft | 442 kts | 220° |
| 2026-05-06 15:28 | 26.70831 | 122.70658 | 36052 ft | 442 kts | 220° |
| 2026-05-06 15:28 | 26.65799 | 122.66691 | 36052 ft | 443 kts | 220° |
| 2026-05-06 15:29 | 26.60771 | 122.62714 | 36057 ft | 443 kts | 220° |
| 2026-05-06 15:29 | 26.55738 | 122.58745 | 36046 ft | 443 kts | 219° |
| 2026-05-06 15:30 | 26.50699 | 122.54784 | 36049 ft | 443 kts | 219° |
| 2026-05-06 15:30 | 26.45663 | 122.50830 | 36051 ft | 443 kts | 219° |
| 2026-05-06 15:31 | 26.40628 | 122.46872 | 36052 ft | 442 kts | 220° |
| 2026-05-06 15:31 | 26.36453 | 122.43578 | 36050 ft | 442 kts | 220° |
| 2026-05-06 15:32 | 26.28903 | 122.37657 | 36038 ft | 443 kts | 219° |
| 2026-05-06 15:32 | 26.23862 | 122.33718 | 36034 ft | 443 kts | 219° |
| 2026-05-06 15:33 | 26.18827 | 122.29770 | 36040 ft | 443 kts | 219° |
| 2026-05-06 15:33 | 26.13792 | 122.25824 | 36040 ft | 443 kts | 219° |
| 2026-05-06 15:34 | 26.08732 | 122.21916 | 36032 ft | 443 kts | 219° |
| 2026-05-06 15:34 | 26.03645 | 122.18038 | 35793 ft | 443 kts | 219° |
| 2026-05-06 15:35 | 26.01105 | 122.16107 | 35549 ft | 443 kts | 219° |
| 2026-05-06 15:35 | 25.98564 | 122.14172 | 35300 ft | 443 kts | 219° |
| 2026-05-06 15:35 | 25.96022 | 122.12229 | 34696 ft | 446 kts | 218° |
| 2026-05-06 15:35 | 25.93470 | 122.10275 | 34219 ft | 444 kts | 218° |
| 2026-05-06 15:36 | 25.90932 | 122.08337 | 33684 ft | 442 kts | 218° |
| 2026-05-06 15:36 | 25.88404 | 122.06409 | 33197 ft | 438 kts | 218° |
| 2026-05-06 15:36 | 25.85938 | 122.04528 | 32709 ft | 435 kts | 218° |
| 2026-05-06 15:36 | 25.83455 | 122.02636 | 32216 ft | 431 kts | 218° |
| 2026-05-06 15:37 | 25.80960 | 122.00733 | 31723 ft | 428 kts | 218° |
| 2026-05-06 15:37 | 25.78516 | 121.98870 | 31237 ft | 424 kts | 219° |
| 2026-05-06 15:37 | 25.76123 | 121.97050 | 30764 ft | 421 kts | 219° |
| 2026-05-06 15:37 | 25.73731 | 121.95234 | 30270 ft | 411 kts | 219° |
| 2026-05-06 15:38 | 25.71405 | 121.93472 | 29763 ft | 399 kts | 219° |
| 2026-05-06 15:38 | 25.69150 | 121.91750 | 29305 ft | 389 kts | 219° |
| 2026-05-06 15:38 | 25.66940 | 121.90043 | 28862 ft | 385 kts | 220° |
| 2026-05-06 15:38 | 25.64929 | 121.88136 | 28419 ft | 377 kts | 230° |
| 2026-05-06 15:39 | 25.63296 | 121.85896 | 27988 ft | 371 kts | 239° |
| 2026-05-06 15:39 | 25.62008 | 121.83446 | 27577 ft | 367 kts | 243° |
| 2026-05-06 15:39 | 25.60763 | 121.80992 | 27180 ft | 364 kts | 243° |
| 2026-05-06 15:39 | 25.59517 | 121.78560 | 26783 ft | 362 kts | 242° |
| 2026-05-06 15:40 | 25.58274 | 121.76146 | 26394 ft | 359 kts | 242° |
| 2026-05-06 15:40 | 25.57041 | 121.73754 | 25997 ft | 357 kts | 242° |
| 2026-05-06 15:40 | 25.55816 | 121.71377 | 25605 ft | 354 kts | 242° |
| 2026-05-06 15:40 | 25.54600 | 121.69016 | 25222 ft | 351 kts | 242° |
| 2026-05-06 15:41 | 25.53392 | 121.66672 | 24832 ft | 349 kts | 242° |
| 2026-05-06 15:41 | 25.52194 | 121.64345 | 24450 ft | 347 kts | 241° |
| 2026-05-06 15:41 | 25.51005 | 121.62033 | 24061 ft | 345 kts | 241° |
| 2026-05-06 15:41 | 25.49822 | 121.59731 | 23639 ft | 344 kts | 241° |
| 2026-05-06 15:42 | 25.48583 | 121.57474 | 23199 ft | 342 kts | 234° |
| 2026-05-06 15:42 | 25.47070 | 121.55452 | 22781 ft | 340 kts | 230° |
| 2026-05-06 15:42 | 25.45531 | 121.53484 | 22365 ft | 337 kts | 230° |
| 2026-05-06 15:42 | 25.44002 | 121.51525 | 21955 ft | 335 kts | 230° |
| 2026-05-06 15:43 | 25.42483 | 121.49583 | 21534 ft | 333 kts | 230° |
| 2026-05-06 15:43 | 25.40975 | 121.47655 | 21117 ft | 330 kts | 230° |
| 2026-05-06 15:43 | 25.39476 | 121.45736 | 20705 ft | 329 kts | 230° |
| 2026-05-06 15:43 | 25.37984 | 121.43827 | 20290 ft | 328 kts | 230° |
| 2026-05-06 15:44 | 25.36497 | 121.41923 | 19881 ft | 327 kts | 230° |
| 2026-05-06 15:44 | 25.35014 | 121.40025 | 19469 ft | 326 kts | 230° |
| 2026-05-06 15:44 | 25.33532 | 121.38131 | 19056 ft | 325 kts | 230° |
| 2026-05-06 15:44 | 25.32049 | 121.36242 | 18644 ft | 325 kts | 230° |
| 2026-05-06 15:45 | 25.30566 | 121.34354 | 18234 ft | 325 kts | 231° |
| 2026-05-06 15:45 | 25.29086 | 121.32466 | 17778 ft | 325 kts | 230° |
| 2026-05-06 15:45 | 25.27612 | 121.30585 | 17367 ft | 323 kts | 230° |
| 2026-05-06 15:45 | 25.26145 | 121.28716 | 16959 ft | 321 kts | 230° |
| 2026-05-06 15:46 | 25.24683 | 121.26849 | 16546 ft | 320 kts | 230° |
| 2026-05-06 15:46 | 25.23227 | 121.24995 | 16140 ft | 319 kts | 230° |
| 2026-05-06 15:46 | 25.21775 | 121.23148 | 15737 ft | 318 kts | 230° |
| 2026-05-06 15:46 | 25.20326 | 121.21308 | 15325 ft | 317 kts | 230° |
| 2026-05-06 15:47 | 25.18880 | 121.19474 | 14915 ft | 316 kts | 230° |
| 2026-05-06 15:47 | 25.17440 | 121.17644 | 14507 ft | 316 kts | 229° |
| 2026-05-06 15:47 | 25.16000 | 121.15815 | 14100 ft | 315 kts | 229° |
| 2026-05-06 15:47 | 25.14566 | 121.13993 | 13680 ft | 314 kts | 229° |
| 2026-05-06 15:48 | 25.13135 | 121.12176 | 13243 ft | 313 kts | 229° |
| 2026-05-06 15:48 | 25.11713 | 121.10372 | 12838 ft | 310 kts | 229° |
| 2026-05-06 15:48 | 25.10304 | 121.08582 | 12438 ft | 308 kts | 229° |
| 2026-05-06 15:48 | 25.08904 | 121.06802 | 12039 ft | 306 kts | 230° |
| 2026-05-06 15:49 | 25.07513 | 121.05038 | 11639 ft | 304 kts | 230° |
| 2026-05-06 15:49 | 25.06131 | 121.03286 | 11247 ft | 302 kts | 230° |
| 2026-05-06 15:49 | 25.04758 | 121.01542 | 10863 ft | 300 kts | 230° |
| 2026-05-06 15:49 | 25.03396 | 120.99814 | 10488 ft | 298 kts | 230° |
| 2026-05-06 15:50 | 25.02059 | 120.98118 | 10130 ft | 295 kts | 230° |
| 2026-05-06 15:50 | 25.00737 | 120.96443 | 9973 ft | 285 kts | 230° |
| 2026-05-06 15:50 | 24.99443 | 120.94804 | 9598 ft | 283 kts | 229° |
| 2026-05-06 15:50 | 24.97985 | 120.93380 | 9122 ft | 277 kts | 212° |
| 2026-05-06 15:51 | 24.96176 | 120.92608 | 8727 ft | 286 kts | 190° |
| 2026-05-06 15:51 | 24.94209 | 120.92806 | 8054 ft | 286 kts | 162° |
| 2026-05-06 15:51 | 24.92548 | 120.93988 | 7327 ft | 288 kts | 135° |
| 2026-05-06 15:51 | 24.91542 | 120.95880 | 6607 ft | 290 kts | 108° |
| 2026-05-06 15:52 | 24.91295 | 120.98080 | 5854 ft | 289 kts | 95° |
| 2026-05-06 15:52 | 24.91315 | 121.00281 | 5107 ft | 287 kts | 80° |
| 2026-05-06 15:52 | 24.92079 | 121.02277 | 4468 ft | 281 kts | 53° |
| 2026-05-06 15:52 | 24.93304 | 121.03871 | 4080 ft | 265 kts | 49° |
| 2026-05-06 15:53 | 24.94475 | 121.05349 | 3772 ft | 246 kts | 49° |
| 2026-05-06 15:53 | 24.95562 | 121.06726 | 3443 ft | 230 kts | 49° |
| 2026-05-06 15:53 | 24.96564 | 121.07994 | 3177 ft | 209 kts | 49° |
| 2026-05-06 15:53 | 24.97478 | 121.09152 | 2906 ft | 193 kts | 49° |
| 2026-05-06 15:54 | 24.98339 | 121.10244 | 2659 ft | 185 kts | 49° |
| 2026-05-06 15:54 | 24.99167 | 121.11293 | 2423 ft | 178 kts | 49° |
| 2026-05-06 15:54 | 24.99965 | 121.12304 | 2199 ft | 172 kts | 49° |
| 2026-05-06 15:54 | 25.00736 | 121.13281 | 1984 ft | 166 kts | 49° |
| 2026-05-06 15:55 | 25.01480 | 121.14224 | 1774 ft | 160 kts | 49° |
| 2026-05-06 15:55 | 25.02201 | 121.15138 | 1595 ft | 153 kts | 49° |
| 2026-05-06 15:55 | 25.02880 | 121.16001 | 1377 ft | 147 kts | 49° |
| 2026-05-06 15:55 | 25.03542 | 121.16840 | 1181 ft | 144 kts | 49° |
| 2026-05-06 15:56 | 25.04192 | 121.17666 | 1003 ft | 142 kts | 49° |
| 2026-05-06 15:56 | 25.04838 | 121.18485 | 824 ft | 141 kts | 49° |
| 2026-05-06 15:56 | 25.05483 | 121.19303 | 655 ft | 141 kts | 49° |
| 2026-05-06 15:56 | 25.06129 | 121.20123 | 471 ft | 142 kts | 49° |
| 2026-05-06 15:57 | 25.06762 | 121.20928 | 295 ft | 138 kts | 49° |
| 2026-05-06 15:57 | 25.07390 | 121.21729 | 113 ft | 138 kts | 49° |
| 2026-05-06 15:57 | 25.07958 | 121.22448 | 102 ft | 104 kts | 49° |
| 2026-05-06 15:57 | 25.08263 | 121.22837 | 100 ft | 24 kts | 50° |
| 2026-05-06 15:58 | 25.08366 | 121.22973 | 100 ft | 17 kts | 53° |
| 2026-05-06 15:58 | 25.08423 | 121.23094 | 100 ft | 18 kts | 70° |
| 2026-05-06 15:58 | 25.08451 | 121.23234 | 101 ft | 19 kts | 81° |
| 2026-05-06 15:58 | 25.08392 | 121.23312 | 100 ft | 17 kts | 206° |
| 2026-05-06 15:59 | 25.08305 | 121.23211 | 99 ft | 19 kts | 229° |
| 2026-05-06 15:59 | 25.08221 | 121.23134 | 101 ft | 15 kts | 185° |
| 2026-05-06 15:59 | 25.08149 | 121.23208 | 101 ft | 13 kts | 133° |
| 2026-05-06 15:59 | 25.08088 | 121.23266 | 101 ft | 6 kts | 140° |
| 2026-05-06 16:00 | 25.08080 | 121.23274 | 101 ft | 0 kts | 139° |